createdAt,value
2017-12-28T00:01:07.442Z,11.67
2017-12-28T00:03:34.944Z,14.10
2017-12-28T00:06:02.466Z,12.83
2017-12-28T00:08:29.993Z,13.20
2017-12-28T00:10:57.485Z,12.03
2017-12-28T00:13:25.005Z,13.43
2017-12-28T00:15:52.527Z,11.20
2017-12-28T00:18:20.009Z,12.30
2017-12-28T00:20:47.536Z,12.80
2017-12-28T00:23:14.992Z,11.60
2017-12-28T00:25:42.436Z,12.13
2017-12-28T00:28:09.922Z,12.60
2017-12-28T00:30:37.404Z,13.00
2017-12-28T00:33:04.863Z,13.93
2017-12-28T00:35:32.361Z,12.13
2017-12-28T00:37:59.853Z,12.97
2017-12-28T00:40:27.344Z,13.23
2017-12-28T00:42:54.840Z,13.03
2017-12-28T00:45:22.308Z,14.03
2017-12-28T00:47:49.763Z,13.93
2017-12-28T00:50:17.261Z,14.30
2017-12-28T00:52:44.706Z,16.07
2017-12-28T00:55:12.153Z,13.67
2017-12-28T00:57:39.641Z,14.63
2017-12-28T01:00:07.113Z,14.27
2017-12-28T01:02:34.613Z,12.30
2017-12-28T01:05:02.109Z,14.40
2017-12-28T01:07:29.609Z,14.17
2017-12-28T01:09:57.075Z,15.60
2017-12-28T01:12:24.520Z,14.97
2017-12-28T01:14:52.012Z,14.63
2017-12-28T01:17:19.455Z,13.83
2017-12-28T01:19:46.949Z,14.77
2017-12-28T01:22:14.398Z,15.97
2017-12-28T01:24:41.855Z,12.87
2017-12-28T01:27:09.333Z,15.40
2017-12-28T01:29:36.777Z,17.87
2017-12-28T01:32:04.246Z,17.17
2017-12-28T01:34:31.758Z,17.33
2017-12-28T01:36:59.210Z,16.97
2017-12-28T01:39:26.800Z,17.57
2017-12-28T01:41:54.281Z,16.70
2017-12-28T01:44:21.838Z,17.30
2017-12-28T01:46:49.325Z,17.67
2017-12-28T01:49:16.779Z,19.33
2017-12-28T01:51:44.306Z,17.23
2017-12-28T01:54:11.761Z,18.90
2017-12-28T01:56:39.241Z,16.53
2017-12-28T01:59:06.802Z,17.00
2017-12-28T02:01:34.281Z,20.63
2017-12-28T02:04:01.775Z,18.63
2017-12-28T02:06:29.405Z,19.43
2017-12-28T02:08:56.846Z,20.33
2017-12-28T02:11:24.323Z,19.37
2017-12-28T02:13:51.766Z,20.13
2017-12-28T02:16:19.300Z,21.23
2017-12-28T02:18:46.772Z,20.97
2017-12-28T02:21:14.259Z,20.37
2017-12-28T02:23:41.724Z,19.57
2017-12-28T02:26:09.278Z,22.40
2017-12-28T02:28:36.756Z,19.20
2017-12-28T02:31:04.229Z,20.97
2017-12-28T02:33:31.776Z,20.27
2017-12-28T02:35:59.224Z,21.57
2017-12-28T02:38:26.733Z,22.73
2017-12-28T02:40:54.312Z,21.83
2017-12-28T02:43:21.884Z,21.87
2017-12-28T02:45:49.374Z,19.60
2017-12-28T02:48:16.838Z,18.10
2017-12-28T02:50:44.355Z,18.33
2017-12-28T02:53:11.823Z,20.13
2017-12-28T02:55:39.318Z,19.57
2017-12-28T02:58:06.759Z,17.80
2017-12-28T03:00:34.206Z,17.40
2017-12-28T03:03:01.684Z,17.03
2017-12-28T03:05:29.212Z,16.30
2017-12-28T03:07:56.797Z,16.03
2017-12-28T03:10:24.240Z,16.73
2017-12-28T03:12:51.721Z,16.17
2017-12-28T03:15:19.304Z,16.07
2017-12-28T03:17:46.776Z,16.77
2017-12-28T03:20:14.258Z,16.57
2017-12-28T03:22:41.709Z,15.30
2017-12-28T03:25:09.197Z,15.90
2017-12-28T03:27:36.646Z,16.80
2017-12-28T03:30:04.125Z,14.13
2017-12-28T03:32:31.595Z,14.40
2017-12-28T03:34:59.083Z,15.20
2017-12-28T03:37:26.548Z,13.63
2017-12-28T03:39:54.011Z,12.87
2017-12-28T03:42:21.581Z,12.80
2017-12-28T03:44:49.029Z,12.33
2017-12-28T03:47:16.518Z,12.30
2017-12-28T03:49:43.956Z,12.63
2017-12-28T03:52:11.436Z,12.40
2017-12-28T03:54:38.934Z,10.97
2017-12-28T03:57:06.510Z,12.60
2017-12-28T03:59:34.083Z,11.20
2017-12-28T04:02:01.559Z,11.83
2017-12-28T04:04:29.120Z,12.20
2017-12-28T04:06:56.597Z,14.03
2017-12-28T04:09:24.129Z,11.83
2017-12-28T04:11:51.627Z,11.57
2017-12-28T04:14:19.216Z,11.60
2017-12-28T04:16:46.657Z,12.27
2017-12-28T04:19:14.136Z,12.47
2017-12-28T04:21:41.630Z,11.17
2017-12-28T04:24:09.190Z,12.33
2017-12-28T04:26:36.765Z,10.87
2017-12-28T04:29:04.236Z,9.23
2017-12-28T04:31:31.701Z,11.00
2017-12-28T04:33:59.284Z,12.83
2017-12-28T04:36:26.762Z,10.83
2017-12-28T04:38:54.307Z,11.67
2017-12-28T04:41:21.757Z,10.80
2017-12-28T04:43:49.243Z,11.63
2017-12-28T04:46:16.687Z,10.70
2017-12-28T04:48:44.183Z,10.37
2017-12-28T04:51:11.667Z,11.97
2017-12-28T04:53:39.117Z,10.47
2017-12-28T04:56:06.612Z,11.10
2017-12-28T04:58:34.127Z,11.30
2017-12-28T05:01:01.691Z,11.47
2017-12-28T05:03:29.232Z,11.20
2017-12-28T05:05:56.804Z,10.20
2017-12-28T05:08:24.248Z,11.17
2017-12-28T05:10:51.695Z,10.50
2017-12-28T05:13:19.207Z,10.33
2017-12-28T05:15:46.649Z,9.73
2017-12-28T05:18:14.145Z,9.90
2017-12-28T05:20:41.598Z,10.87
2017-12-28T05:23:09.083Z,10.40
2017-12-28T05:25:36.561Z,9.87
2017-12-28T05:28:04.031Z,10.07
2017-12-28T05:30:31.511Z,10.67
2017-12-28T05:32:58.997Z,9.97
2017-12-28T05:35:26.595Z,10.13
2017-12-28T05:37:54.049Z,10.17
2017-12-28T05:40:21.586Z,8.97
2017-12-28T05:42:49.046Z,10.30
2017-12-28T05:45:16.687Z,11.63
2017-12-28T05:47:44.158Z,10.70
2017-12-28T05:50:11.683Z,10.13
2017-12-28T05:52:39.248Z,9.50
2017-12-28T05:55:06.704Z,9.77
2017-12-28T05:57:34.193Z,10.57
2017-12-28T06:00:02.624Z,10.83
2017-12-28T06:02:30.149Z,10.23
2017-12-28T06:04:57.632Z,9.80
2017-12-28T06:07:25.200Z,9.90
2017-12-28T06:09:52.761Z,10.70
2017-12-28T06:12:20.253Z,12.40
2017-12-28T06:14:47.843Z,10.07
2017-12-28T06:17:15.296Z,10.87
2017-12-28T06:19:42.781Z,12.07
2017-12-28T06:22:10.236Z,13.03
2017-12-28T06:24:37.809Z,10.63
2017-12-28T06:27:05.287Z,10.43
2017-12-28T06:29:32.953Z,10.77
2017-12-28T06:32:00.395Z,10.90
2017-12-28T06:34:27.889Z,12.00
2017-12-28T06:36:55.372Z,11.77
2017-12-28T06:39:22.944Z,10.53
2017-12-28T06:41:50.554Z,12.30
2017-12-28T06:44:18.081Z,10.73
2017-12-28T06:46:45.541Z,11.90
2017-12-28T06:49:13.036Z,11.93
2017-12-28T06:51:40.591Z,14.77
2017-12-28T06:54:08.041Z,14.00
2017-12-28T06:56:35.502Z,13.73
2017-12-28T06:59:02.986Z,13.97
2017-12-28T07:01:30.442Z,14.10
2017-12-28T07:03:57.935Z,15.17
2017-12-28T07:06:25.396Z,15.67
2017-12-28T07:08:52.979Z,14.97
2017-12-28T07:11:20.466Z,16.10
2017-12-28T07:13:47.920Z,16.57
2017-12-28T07:16:15.490Z,17.03
2017-12-28T07:18:42.964Z,16.93
2017-12-28T07:21:10.442Z,17.57
2017-12-28T07:23:38.179Z,17.73
2017-12-28T07:26:05.679Z,16.83
2017-12-28T07:28:33.165Z,17.27
2017-12-28T07:31:00.649Z,16.77
2017-12-28T07:33:28.215Z,16.37
2017-12-28T07:35:55.979Z,17.17
2017-12-28T07:38:23.451Z,19.00
2017-12-28T07:40:50.951Z,19.20
2017-12-28T07:43:18.494Z,18.97
2017-12-28T07:45:46.081Z,20.33
2017-12-28T07:48:13.533Z,19.40
2017-12-28T07:50:41.108Z,19.07
2017-12-28T07:53:08.681Z,19.40
2017-12-28T07:55:36.132Z,21.03
2017-12-28T07:58:03.616Z,20.37
2017-12-28T08:00:31.199Z,27.70
2017-12-28T08:02:58.660Z,27.33
2017-12-28T08:05:26.104Z,24.43
2017-12-28T08:07:53.623Z,31.07
2017-12-28T08:10:21.085Z,23.07
2017-12-28T08:12:48.531Z,22.67
2017-12-28T08:15:16.015Z,25.60
2017-12-28T08:17:43.499Z,21.43
2017-12-28T08:20:11.831Z,20.37
2017-12-28T08:22:39.356Z,20.13
2017-12-28T08:25:06.799Z,22.33
2017-12-28T08:27:34.289Z,20.27
2017-12-28T08:30:01.772Z,21.93
2017-12-28T08:32:29.221Z,25.07
2017-12-28T08:34:56.797Z,25.03
2017-12-28T08:37:24.268Z,26.57
2017-12-28T08:39:51.847Z,27.37
2017-12-28T08:42:19.348Z,23.33
2017-12-28T08:44:46.785Z,23.37
2017-12-28T08:47:14.253Z,23.50
2017-12-28T08:49:41.740Z,27.07
2017-12-28T08:52:09.209Z,20.23
2017-12-28T08:54:36.710Z,18.20
2017-12-28T08:57:04.192Z,19.30
2017-12-28T08:59:31.648Z,18.97
2017-12-28T09:01:59.194Z,18.33
2017-12-28T09:04:26.704Z,16.93
2017-12-28T09:06:54.223Z,16.30
2017-12-28T09:09:21.769Z,18.53
2017-12-28T09:11:49.279Z,18.10
2017-12-28T09:14:17.342Z,21.50
2017-12-28T09:16:44.813Z,21.77
2017-12-28T09:19:12.273Z,21.60
2017-12-28T09:21:39.744Z,23.13
2017-12-28T09:24:07.236Z,24.43
2017-12-28T09:26:34.718Z,21.90
2017-12-28T09:29:02.232Z,20.20
2017-12-28T09:31:29.743Z,22.93
2017-12-28T09:33:57.219Z,22.07
2017-12-28T09:36:24.799Z,19.30
2017-12-28T09:38:52.263Z,19.10
2017-12-28T09:41:19.747Z,18.60
2017-12-28T09:43:47.296Z,19.00
2017-12-28T09:46:14.765Z,21.83
2017-12-28T09:48:42.245Z,21.63
2017-12-28T09:51:09.811Z,21.10
2017-12-28T09:53:37.383Z,20.13
2017-12-28T09:56:04.837Z,21.20
2017-12-28T09:58:32.325Z,19.97
2017-12-28T10:00:59.774Z,18.30
2017-12-28T10:03:27.279Z,17.93
2017-12-28T10:05:54.736Z,18.37
2017-12-28T10:08:22.225Z,16.57
2017-12-28T10:10:49.685Z,17.40
2017-12-28T10:13:17.167Z,16.27
2017-12-28T10:15:44.643Z,17.27
2017-12-28T10:18:12.214Z,14.83
2017-12-28T10:20:39.670Z,15.33
2017-12-28T10:23:07.155Z,17.30
2017-12-28T10:25:35.080Z,16.03
2017-12-28T10:28:02.540Z,15.67
2017-12-28T10:30:29.988Z,15.63
2017-12-28T10:32:57.477Z,14.87
2017-12-28T10:35:25.004Z,14.40
2017-12-28T10:37:52.572Z,15.60
2017-12-28T10:40:20.028Z,14.50
2017-12-28T10:42:47.512Z,11.63
2017-12-28T10:45:14.999Z,12.60
2017-12-28T10:47:42.510Z,11.23
2017-12-28T10:50:10.040Z,11.23
2017-12-28T10:52:37.594Z,13.73
2017-12-28T10:55:05.220Z,11.80
2017-12-28T10:57:32.672Z,12.33
2017-12-28T11:00:00.220Z,11.00
2017-12-28T11:02:27.694Z,10.27
2017-12-28T11:04:55.193Z,10.63
2017-12-28T11:07:22.734Z,11.40
2017-12-28T11:09:50.298Z,10.90
2017-12-28T11:12:17.758Z,9.70
2017-12-28T11:14:45.248Z,10.80
2017-12-28T11:17:12.704Z,10.20
2017-12-28T11:19:40.148Z,9.83
2017-12-28T11:22:07.674Z,10.83
2017-12-28T11:24:35.228Z,9.70
2017-12-28T11:27:02.721Z,10.90
2017-12-28T11:29:30.172Z,10.07
2017-12-28T11:31:57.743Z,10.80
2017-12-28T11:34:25.425Z,11.20
2017-12-28T11:36:52.907Z,10.67
2017-12-28T11:39:20.471Z,10.07
2017-12-28T11:41:47.924Z,9.37
2017-12-28T11:44:15.377Z,10.60
2017-12-28T11:46:42.866Z,8.43
2017-12-28T11:49:10.319Z,10.30
2017-12-28T11:51:43.810Z,8.60
2017-12-28T11:54:12.197Z,9.30
2017-12-28T11:56:39.722Z,9.30
2017-12-28T11:59:12.915Z,8.77
2017-12-28T12:04:44.030Z,8.53
2017-12-28T12:07:12.254Z,8.60
2017-12-28T12:09:45.219Z,8.43
2017-12-28T12:12:12.658Z,7.37
2017-12-28T12:14:40.102Z,8.67
2017-12-28T12:17:07.580Z,7.37
2017-12-28T12:19:35.033Z,8.77
2017-12-28T12:22:02.552Z,9.00
2017-12-28T12:24:30.048Z,7.30
2017-12-28T12:26:57.596Z,7.00
2017-12-28T12:29:25.029Z,6.90
2017-12-28T12:31:52.548Z,6.77
2017-12-28T12:34:19.987Z,7.00
2017-12-28T12:36:47.486Z,7.17
2017-12-28T12:39:14.959Z,7.57
2017-12-28T12:41:42.426Z,6.73
2017-12-28T12:44:10.008Z,6.53
2017-12-28T12:46:37.459Z,7.20
2017-12-28T12:49:06.101Z,7.20
2017-12-28T12:51:33.536Z,7.67
2017-12-28T12:54:00.998Z,6.30
2017-12-28T12:56:28.443Z,6.83
2017-12-28T12:58:55.902Z,6.93
2017-12-28T13:01:23.347Z,8.13
2017-12-28T13:03:50.837Z,7.83
2017-12-28T13:06:18.359Z,7.07
2017-12-28T13:08:45.820Z,6.67
2017-12-28T13:11:13.268Z,5.27
2017-12-28T13:13:40.729Z,6.80
2017-12-28T13:16:08.187Z,5.53
2017-12-28T13:18:35.639Z,5.90
2017-12-28T13:21:03.131Z,6.17
2017-12-28T13:23:30.596Z,7.53
2017-12-28T13:25:58.039Z,4.97
2017-12-28T13:28:25.480Z,5.33
2017-12-28T13:30:52.950Z,6.03
2017-12-28T13:33:20.386Z,4.93
2017-12-28T13:35:47.829Z,4.70
2017-12-28T13:38:15.279Z,4.10
2017-12-28T13:40:42.731Z,5.93
2017-12-28T13:43:10.185Z,4.67
2017-12-28T13:45:37.638Z,4.30
2017-12-28T13:48:05.088Z,5.27
2017-12-28T13:50:32.536Z,5.73
2017-12-28T13:52:59.998Z,6.60
2017-12-28T13:55:27.455Z,5.83
2017-12-28T13:57:54.904Z,5.40
2017-12-28T14:00:22.346Z,6.27
2017-12-28T14:02:49.808Z,5.53
2017-12-28T14:05:17.243Z,4.93
2017-12-28T14:07:44.684Z,4.90
2017-12-28T14:10:12.139Z,4.83
2017-12-28T14:12:39.581Z,5.23
2017-12-28T14:15:07.042Z,5.23
2017-12-28T14:17:34.547Z,5.80
2017-12-28T14:20:02.041Z,5.87
2017-12-28T14:22:29.485Z,5.67
2017-12-28T14:24:56.935Z,5.27
2017-12-28T14:27:24.368Z,6.30
2017-12-28T14:29:51.833Z,4.67
2017-12-28T14:32:19.335Z,5.50
2017-12-28T14:34:46.791Z,5.10
2017-12-28T14:37:14.248Z,5.30
2017-12-28T14:39:41.688Z,4.90
2017-12-28T14:42:09.141Z,5.33
2017-12-28T14:44:36.576Z,6.00
2017-12-28T14:47:04.040Z,6.00
2017-12-28T14:49:31.481Z,5.33
2017-12-28T14:51:58.957Z,5.90
2017-12-28T14:54:26.402Z,6.93
2017-12-28T14:56:53.870Z,4.93
2017-12-28T14:59:21.320Z,5.53
2017-12-28T15:01:48.767Z,6.90
2017-12-28T15:04:16.220Z,6.17
2017-12-28T15:06:43.662Z,5.70
2017-12-28T15:09:11.116Z,7.33
2017-12-28T15:11:38.558Z,7.20
2017-12-28T15:14:06.002Z,6.87
2017-12-28T15:16:33.447Z,6.30
2017-12-28T15:19:00.903Z,5.73
2017-12-28T15:21:28.372Z,6.30
2017-12-28T15:23:55.819Z,6.23
2017-12-28T15:26:23.268Z,5.73
2017-12-28T15:28:50.715Z,4.73
2017-12-28T15:31:18.176Z,5.23
2017-12-28T15:33:45.616Z,5.47
2017-12-28T15:36:13.132Z,5.53
2017-12-28T15:38:40.596Z,6.30
2017-12-28T15:41:08.044Z,5.13
2017-12-28T15:43:35.513Z,4.03
2017-12-28T15:46:02.963Z,5.93
2017-12-28T15:48:30.467Z,5.20
2017-12-28T15:50:57.907Z,4.00
2017-12-28T15:53:25.432Z,5.93
2017-12-28T15:55:52.875Z,6.20
2017-12-28T15:58:20.364Z,4.30
2017-12-28T16:00:47.802Z,5.57
2017-12-28T16:03:15.243Z,4.70
2017-12-28T16:05:42.697Z,3.73
2017-12-28T16:08:10.138Z,5.27
2017-12-28T16:10:37.598Z,4.93
2017-12-28T16:13:05.044Z,4.00
2017-12-28T16:15:32.486Z,4.07
2017-12-28T16:18:00.070Z,4.10
2017-12-28T16:20:27.527Z,4.93
2017-12-28T16:22:55.012Z,4.10
2017-12-28T16:25:22.499Z,3.40
2017-12-28T16:27:49.995Z,6.53
2017-12-28T16:30:17.474Z,4.17
2017-12-28T16:32:44.978Z,5.20
2017-12-28T16:35:12.391Z,3.07
2017-12-28T16:37:39.860Z,4.27
2017-12-28T16:40:07.354Z,5.07
2017-12-28T16:42:34.844Z,4.10
2017-12-28T16:45:02.403Z,4.07
2017-12-28T16:47:29.844Z,3.60
2017-12-28T16:49:57.338Z,6.47
2017-12-28T16:52:24.819Z,5.97
2017-12-28T16:54:52.286Z,4.73
2017-12-28T16:57:19.720Z,5.20
2017-12-28T16:59:47.274Z,5.67
2017-12-28T17:02:14.852Z,6.53
2017-12-28T17:04:42.674Z,4.67
2017-12-28T17:07:10.158Z,5.10
2017-12-28T17:09:37.643Z,4.13
2017-12-28T17:12:05.259Z,4.03
2017-12-28T17:14:32.769Z,4.60
2017-12-28T17:17:00.268Z,5.73
2017-12-28T17:19:27.821Z,4.37
2017-12-28T17:21:55.275Z,3.97
2017-12-28T17:24:22.763Z,3.87
2017-12-28T17:26:50.217Z,5.50
2017-12-28T17:29:17.765Z,4.70
2017-12-28T17:31:45.317Z,4.53
2017-12-28T17:34:12.756Z,4.33
2017-12-28T17:36:40.221Z,4.57
2017-12-28T17:39:07.691Z,4.20
2017-12-28T17:41:35.191Z,5.20
2017-12-28T17:44:02.647Z,8.53
2017-12-28T17:46:30.149Z,10.87
2017-12-28T17:48:57.642Z,11.80
2017-12-28T17:51:25.136Z,8.00
2017-12-28T17:53:52.628Z,6.13
2017-12-28T17:56:20.123Z,6.63
2017-12-28T17:58:47.620Z,6.77
2017-12-28T18:01:15.169Z,8.10
2017-12-28T18:03:42.743Z,11.10
2017-12-28T18:06:10.245Z,7.70
2017-12-28T18:08:37.755Z,7.27
2017-12-28T18:11:05.256Z,6.30
2017-12-28T18:13:32.692Z,6.73
2017-12-28T18:16:00.297Z,6.27
2017-12-28T18:18:27.832Z,6.03
2017-12-28T18:20:55.273Z,5.50
2017-12-28T18:23:22.810Z,6.27
2017-12-28T18:25:50.339Z,5.40
2017-12-28T18:28:17.860Z,4.20
2017-12-28T18:30:45.356Z,7.10
2017-12-28T18:33:12.927Z,6.77
2017-12-28T18:35:40.467Z,5.37
2017-12-28T18:38:07.994Z,6.03
2017-12-28T18:40:35.497Z,4.50
2017-12-28T18:43:03.043Z,4.70
2017-12-28T18:45:30.662Z,7.70
2017-12-28T18:47:58.168Z,7.53
2017-12-28T18:50:25.679Z,4.03
2017-12-28T18:52:53.119Z,5.27
2017-12-28T18:55:20.643Z,5.30
2017-12-28T18:57:48.135Z,3.37
2017-12-28T19:00:15.702Z,3.83
2017-12-28T19:02:43.275Z,7.10
2017-12-28T19:05:10.785Z,4.30
2017-12-28T19:07:38.230Z,4.07
2017-12-28T19:10:05.783Z,6.10
2017-12-28T19:12:33.346Z,6.03
2017-12-28T19:15:00.831Z,5.03
2017-12-28T19:17:28.335Z,5.07
2017-12-28T19:19:55.786Z,3.97
2017-12-28T19:22:23.298Z,3.90
2017-12-28T19:24:50.914Z,4.87
2017-12-28T19:27:18.425Z,5.03
2017-12-28T19:29:45.920Z,4.60
2017-12-28T19:32:13.527Z,5.60
2017-12-28T19:34:41.082Z,4.33
2017-12-28T19:37:08.590Z,5.17
2017-12-28T19:39:36.091Z,4.07
2017-12-28T19:42:03.599Z,3.93
2017-12-28T19:44:31.175Z,4.33
2017-12-28T19:46:58.761Z,4.07
2017-12-28T19:49:26.337Z,3.93
2017-12-28T19:51:53.840Z,4.43
2017-12-28T19:54:21.339Z,4.60
2017-12-28T19:56:48.851Z,4.40
2017-12-28T19:59:16.417Z,5.07
2017-12-28T20:01:43.919Z,4.60
2017-12-28T20:04:11.468Z,4.30
2017-12-28T20:06:39.034Z,4.60
2017-12-28T20:09:06.475Z,6.47
2017-12-28T20:11:33.986Z,5.03
2017-12-28T20:14:01.473Z,6.03
2017-12-28T20:16:29.016Z,6.13
2017-12-28T20:18:56.520Z,5.23
2017-12-28T20:21:24.028Z,5.07
2017-12-28T20:23:51.534Z,6.97
2017-12-28T20:26:19.023Z,5.93
2017-12-28T20:28:46.588Z,5.23
2017-12-28T20:31:14.138Z,6.03
2017-12-28T20:33:41.728Z,5.83
2017-12-28T20:36:09.307Z,5.70
2017-12-28T20:38:36.826Z,6.00
2017-12-28T20:41:04.349Z,5.23
2017-12-28T20:43:31.856Z,5.07
2017-12-28T20:45:59.348Z,7.70
2017-12-28T20:48:26.958Z,6.27
2017-12-28T20:50:54.523Z,6.00
2017-12-28T20:53:22.015Z,5.77
2017-12-28T20:55:49.512Z,5.60
2017-12-28T20:58:17.000Z,5.33
2017-12-28T21:00:44.511Z,5.43
2017-12-28T21:03:12.021Z,6.33
2017-12-28T21:05:39.538Z,5.63
2017-12-28T21:08:07.038Z,5.60
2017-12-28T21:10:34.600Z,5.27
2017-12-28T21:13:02.178Z,5.97
2017-12-28T21:15:29.734Z,5.70
2017-12-28T21:17:57.228Z,5.23
2017-12-28T21:20:24.734Z,5.10
2017-12-28T21:22:52.240Z,6.17
2017-12-28T21:25:19.722Z,4.57
2017-12-28T21:27:47.304Z,5.20
2017-12-28T21:30:14.875Z,7.07
2017-12-28T21:32:42.395Z,6.07
2017-12-28T21:35:09.896Z,5.70
2017-12-28T21:37:37.397Z,6.13
2017-12-28T21:40:04.978Z,5.80
2017-12-28T21:42:32.482Z,6.07
2017-12-28T21:44:59.975Z,5.37
2017-12-28T21:47:27.480Z,5.30
2017-12-28T21:49:55.052Z,4.73
2017-12-28T21:52:22.567Z,4.97
2017-12-28T21:54:50.086Z,5.80
2017-12-28T21:57:17.578Z,6.67
2017-12-28T21:59:45.073Z,5.80
2017-12-28T22:02:12.618Z,5.63
2017-12-28T22:04:40.181Z,5.30
2017-12-28T22:07:07.678Z,5.60
2017-12-28T22:09:35.175Z,5.73
2017-12-28T22:12:02.710Z,5.50
2017-12-28T22:14:30.201Z,5.10
2017-12-28T22:16:57.708Z,5.23
2017-12-28T22:19:25.194Z,5.50
2017-12-28T22:21:52.706Z,5.30
2017-12-28T22:24:20.198Z,6.37
2017-12-28T22:26:47.708Z,5.40
2017-12-28T22:29:15.200Z,5.40
2017-12-28T22:31:42.778Z,5.83
2017-12-28T22:34:10.551Z,5.50
2017-12-28T22:36:38.059Z,4.50
2017-12-28T22:39:05.647Z,5.90
2017-12-28T22:41:33.168Z,4.80
2017-12-28T22:44:00.743Z,4.60
2017-12-28T22:46:28.254Z,4.33
2017-12-28T22:48:55.749Z,4.80
2017-12-28T22:51:23.460Z,5.63
2017-12-28T22:53:51.033Z,5.60
2017-12-28T22:56:18.596Z,5.57
2017-12-28T22:58:46.101Z,4.37
2017-12-28T23:01:13.637Z,5.87
2017-12-28T23:03:41.177Z,6.00
2017-12-28T23:06:08.701Z,5.73
2017-12-28T23:08:36.234Z,5.70
2017-12-28T23:11:03.735Z,5.80
2017-12-28T23:13:31.219Z,5.30
2017-12-28T23:15:58.773Z,5.23
2017-12-28T23:18:28.775Z,5.83
2017-12-28T23:20:56.283Z,5.33
2017-12-28T23:23:23.845Z,6.37
2017-12-28T23:25:51.410Z,5.53
2017-12-28T23:28:18.991Z,5.17
2017-12-28T23:30:46.509Z,5.23
2017-12-28T23:33:13.999Z,4.93
2017-12-28T23:35:41.639Z,5.47
2017-12-28T23:38:09.170Z,5.00
2017-12-28T23:40:36.658Z,4.83
2017-12-28T23:43:04.164Z,5.30
2017-12-28T23:45:31.657Z,5.17
2017-12-28T23:47:59.169Z,5.23
2017-12-28T23:50:26.735Z,4.80
2017-12-28T23:52:54.229Z,5.93
2017-12-28T23:55:21.711Z,4.87
2017-12-28T23:57:49.248Z,4.83
